createdAt,value
2023-03-20T00:01:14.887Z,46.28
2023-03-20T00:04:16.388Z,47.42
2023-03-20T00:07:17.844Z,48.83
2023-03-20T00:10:20.363Z,43.45
2023-03-20T00:13:25.568Z,48.07
2023-03-20T00:16:33.197Z,44.13
2023-03-20T00:19:34.549Z,43.40
2023-03-20T00:22:35.929Z,48.42
2023-03-20T00:25:38.836Z,44.72
2023-03-20T00:28:43.657Z,47.75
2023-03-20T00:31:45.176Z,48.10
2023-03-20T00:34:46.613Z,47.40
2023-03-20T00:37:48.156Z,48.25
2023-03-20T00:40:49.539Z,45.42
2023-03-20T00:43:55.027Z,46.03
2023-03-20T00:47:13.148Z,41.55
2023-03-20T00:50:25.647Z,50.45
2023-03-20T00:53:27.043Z,45.70
2023-03-20T00:56:33.389Z,46.20
2023-03-20T00:59:42.017Z,43.53
2023-03-20T01:02:43.459Z,46.45
2023-03-20T01:05:45.812Z,43.40
2023-03-20T01:08:47.231Z,46.03
2023-03-20T01:11:48.605Z,46.67
2023-03-20T01:14:55.799Z,44.50
2023-03-20T01:17:57.311Z,54.08
2023-03-20T01:20:58.753Z,49.17
2023-03-20T01:24:00.216Z,57.83
2023-03-20T01:27:01.941Z,57.25
2023-03-20T01:30:03.735Z,53.35
2023-03-20T01:33:17.702Z,55.87
2023-03-20T01:36:23.640Z,46.95
2023-03-20T01:39:33.405Z,49.38
2023-03-20T01:42:35.202Z,51.58
2023-03-20T01:45:37.895Z,44.00
2023-03-20T01:48:51.578Z,42.13
2023-03-20T01:51:55.715Z,35.88
2023-03-20T01:54:57.171Z,35.53
2023-03-20T01:58:05.178Z,35.13
2023-03-20T02:01:11.939Z,35.13
2023-03-20T02:04:19.353Z,28.17
2023-03-20T02:07:26.562Z,27.17
2023-03-20T02:10:45.762Z,30.73
2023-03-20T02:13:59.477Z,28.35
2023-03-20T02:17:08.704Z,23.95
2023-03-20T02:20:42.512Z,25.05
2023-03-20T02:24:09.147Z,18.95
2023-03-20T02:27:21.765Z,18.63
2023-03-20T02:30:48.287Z,21.13
2023-03-20T02:34:21.652Z,17.90
2023-03-20T02:37:53.082Z,19.92
2023-03-20T02:41:01.607Z,18.40
2023-03-20T02:44:13.522Z,16.83
2023-03-20T02:47:31.331Z,17.48
2023-03-20T02:50:48.573Z,18.92
2023-03-20T02:54:28.160Z,16.85
2023-03-20T02:57:44.101Z,17.50
2023-03-20T03:01:01.753Z,14.60
2023-03-20T03:04:27.676Z,11.75
2023-03-20T03:07:33.360Z,12.85
2023-03-20T03:11:00.643Z,14.60
2023-03-20T03:14:02.811Z,11.32
2023-03-20T03:17:07.322Z,12.88
2023-03-20T03:20:21.078Z,11.52
2023-03-20T03:23:34.022Z,13.63
2023-03-20T03:26:39.619Z,14.20
2023-03-20T03:29:41.886Z,12.77
2023-03-20T03:32:50.442Z,14.80
2023-03-20T03:35:59.027Z,11.95
2023-03-20T03:39:12.538Z,17.00
2023-03-20T03:42:35.011Z,16.13
2023-03-20T03:45:42.801Z,12.63
2023-03-20T03:48:49.890Z,12.80
2023-03-20T03:51:56.839Z,12.40
2023-03-20T03:55:13.438Z,14.90
2023-03-20T03:58:34.834Z,13.63
2023-03-20T04:01:37.854Z,13.95
2023-03-20T04:04:45.890Z,13.32
2023-03-20T04:07:48.594Z,13.77
2023-03-20T04:10:52.085Z,11.85
2023-03-20T04:13:53.745Z,13.05
2023-03-20T04:16:55.215Z,12.85
2023-03-20T04:19:57.132Z,10.98
2023-03-20T04:22:59.379Z,10.02
2023-03-20T04:26:01.911Z,10.55
2023-03-20T04:29:04.402Z,10.48
2023-03-20T04:32:44.106Z,7.22
2023-03-20T04:36:08.775Z,7.47
2023-03-20T04:39:10.233Z,8.63
2023-03-20T04:42:11.880Z,10.18
2023-03-20T04:45:13.416Z,9.07
2023-03-20T04:48:15.031Z,10.48
2023-03-20T04:51:17.175Z,9.35
2023-03-20T04:54:23.132Z,9.15
2023-03-20T04:57:24.646Z,9.73
2023-03-20T05:00:26.378Z,8.88
2023-03-20T05:03:27.770Z,9.82
2023-03-20T05:06:30.267Z,11.25
2023-03-20T05:09:33.186Z,10.88
2023-03-20T05:12:37.525Z,12.20
2023-03-20T05:15:59.613Z,9.95
2023-03-20T05:19:23.933Z,11.25
2023-03-20T05:22:43.964Z,11.30
2023-03-20T05:25:52.212Z,13.73
2023-03-20T05:29:17.907Z,10.85
2023-03-20T05:32:19.252Z,13.40
2023-03-20T05:35:40.614Z,13.38
2023-03-20T05:38:54.080Z,11.85
2023-03-20T05:42:30.785Z,12.18
2023-03-20T05:46:04.892Z,9.20
2023-03-20T05:49:24.338Z,11.93
2023-03-20T05:52:47.464Z,12.52
2023-03-20T05:56:07.802Z,9.87
2023-03-20T05:59:15.139Z,10.40
2023-03-20T06:02:40.219Z,9.90
2023-03-20T06:06:01.557Z,11.30
2023-03-20T06:09:04.806Z,13.50
2023-03-20T06:12:06.843Z,11.57
2023-03-20T06:15:08.643Z,9.23
2023-03-20T06:18:15.266Z,9.65
2023-03-20T06:21:16.721Z,10.70
2023-03-20T06:24:18.609Z,11.48
2023-03-20T06:27:20.114Z,10.75
2023-03-20T06:30:24.316Z,10.93
2023-03-20T06:33:26.230Z,12.23
2023-03-20T06:36:34.687Z,11.13
2023-03-20T06:39:42.303Z,10.35
2023-03-20T06:42:47.459Z,10.60
2023-03-20T06:45:50.634Z,11.82
2023-03-20T06:48:56.855Z,9.63
2023-03-20T06:51:58.356Z,7.97
2023-03-20T06:55:00.382Z,10.80
2023-03-20T06:58:01.810Z,9.85
2023-03-20T07:01:16.019Z,10.57
2023-03-20T07:07:24.596Z,8.95
2023-03-20T07:10:26.945Z,9.07
2023-03-20T07:13:28.367Z,8.77
2023-03-20T07:16:31.357Z,8.48
2023-03-20T07:19:32.883Z,8.77
2023-03-20T07:22:34.386Z,8.38
2023-03-20T07:25:48.945Z,8.68
2023-03-20T07:28:53.422Z,7.03
2023-03-20T07:31:57.774Z,7.30
2023-03-20T07:35:04.028Z,9.02
2023-03-20T07:38:05.776Z,7.57
2023-03-20T07:41:09.167Z,9.70
2023-03-20T07:44:16.611Z,9.77
2023-03-20T07:47:22.622Z,8.55
2023-03-20T07:50:24.018Z,7.50
2023-03-20T07:53:25.592Z,8.60
2023-03-20T07:56:27.011Z,6.85
2023-03-20T07:59:28.452Z,6.80
2023-03-20T08:02:29.983Z,8.68
2023-03-20T08:05:31.445Z,7.88
2023-03-20T08:08:33.501Z,7.47
2023-03-20T08:11:35.036Z,11.20
2023-03-20T08:14:36.511Z,8.07
2023-03-20T08:17:37.884Z,10.45
2023-03-20T08:20:39.272Z,11.35
2023-03-20T08:23:40.663Z,8.65
2023-03-20T08:26:42.220Z,9.82
2023-03-20T08:29:43.656Z,11.07
2023-03-20T08:32:45.138Z,9.60
2023-03-20T08:35:57.549Z,9.38
2023-03-20T08:38:59.015Z,14.60
2023-03-20T08:42:01.209Z,7.32
2023-03-20T08:45:02.832Z,8.70
2023-03-20T08:48:04.291Z,13.10
2023-03-20T08:51:05.964Z,11.40
2023-03-20T08:54:07.415Z,10.73
2023-03-20T08:57:09.324Z,11.68
2023-03-20T09:00:13.325Z,12.02
2023-03-20T09:03:16.963Z,9.48
2023-03-20T09:06:18.450Z,11.85
2023-03-20T09:09:19.844Z,11.90
2023-03-20T09:12:21.698Z,12.15
2023-03-20T09:15:23.134Z,11.23
2023-03-20T09:18:25.375Z,10.30
2023-03-20T09:21:27.025Z,10.48
2023-03-20T09:24:28.458Z,10.85
2023-03-20T09:27:29.827Z,10.05
2023-03-20T09:30:31.319Z,12.20
2023-03-20T09:33:32.700Z,11.55
2023-03-20T09:36:34.136Z,14.85
2023-03-20T09:39:35.538Z,11.00
2023-03-20T09:42:43.721Z,14.32
2023-03-20T09:46:00.529Z,8.77
2023-03-20T09:49:13.233Z,21.02
2023-03-20T09:52:52.495Z,12.40
2023-03-20T09:55:55.537Z,12.43
2023-03-20T09:58:59.704Z,10.43
2023-03-20T10:02:15.989Z,21.20
2023-03-20T10:05:25.537Z,13.40
2023-03-20T10:08:33.053Z,14.07
2023-03-20T10:11:58.692Z,11.43
2023-03-20T10:15:38.327Z,9.55
2023-03-20T10:18:48.888Z,9.10
2023-03-20T10:22:00.290Z,10.30
2023-03-20T10:25:15.910Z,22.10
2023-03-20T10:28:22.744Z,31.70
2023-03-20T10:31:46.574Z,13.82
2023-03-20T10:35:13.288Z,11.82
2023-03-20T10:38:26.843Z,11.57
2023-03-20T10:44:37.329Z,14.13
2023-03-20T10:47:41.903Z,13.20
2023-03-20T10:50:51.786Z,14.65
2023-03-20T10:53:58.101Z,10.93
2023-03-20T10:57:01.906Z,10.68
2023-03-20T11:00:05.983Z,9.48
2023-03-20T11:03:14.276Z,11.80
2023-03-20T11:06:25.653Z,10.07
2023-03-20T11:09:27.090Z,9.27
2023-03-20T11:12:33.090Z,9.18
2023-03-20T11:15:34.613Z,8.13
2023-03-20T11:18:36.283Z,10.20
2023-03-20T11:21:52.572Z,10.93
2023-03-20T11:24:56.871Z,12.35
2023-03-20T11:28:38.103Z,14.07
2023-03-20T11:31:41.275Z,13.55
2023-03-20T11:34:42.807Z,9.52
2023-03-20T11:37:46.969Z,9.20
2023-03-20T11:40:49.952Z,8.52
2023-03-20T11:43:51.866Z,10.70
2023-03-20T11:46:57.370Z,8.85
2023-03-20T11:50:01.779Z,9.35
2023-03-20T11:53:17.096Z,7.63
2023-03-20T11:56:24.823Z,7.78
2023-03-20T11:59:33.697Z,9.10
2023-03-20T12:02:36.213Z,11.80
2023-03-20T12:05:37.979Z,11.47
2023-03-20T12:08:42.742Z,8.95
2023-03-20T12:11:52.886Z,8.02
2023-03-20T12:15:14.499Z,10.20
2023-03-20T12:18:37.258Z,7.22
2023-03-20T12:21:50.032Z,15.38
2023-03-20T12:25:17.408Z,14.13
2023-03-20T12:28:21.849Z,6.55
2023-03-20T12:31:26.361Z,8.88
2023-03-20T12:34:34.832Z,7.43
2023-03-20T12:37:36.320Z,7.75
2023-03-20T12:40:45.495Z,7.68
2023-03-20T12:44:03.766Z,7.00
2023-03-20T12:47:41.366Z,5.57
2023-03-20T12:50:50.662Z,9.00
2023-03-20T12:54:01.668Z,7.15
2023-03-20T12:57:17.373Z,11.35
2023-03-20T13:00:28.165Z,7.07
2023-03-20T13:03:51.211Z,7.93
2023-03-20T13:07:07.425Z,8.93
2023-03-20T13:10:37.116Z,8.23
2023-03-20T13:13:55.168Z,8.90
2023-03-20T13:17:11.726Z,9.38
2023-03-20T13:20:25.285Z,9.48
2023-03-20T13:26:52.223Z,10.55
2023-03-20T13:30:08.939Z,9.02
2023-03-20T13:33:42.668Z,7.68
2023-03-20T13:36:55.983Z,7.18
2023-03-20T13:40:18.901Z,6.30
2023-03-20T13:43:23.164Z,7.33
2023-03-20T13:46:29.230Z,6.55
2023-03-20T13:49:51.722Z,7.25
2023-03-20T13:53:04.055Z,7.32
2023-03-20T13:56:27.054Z,8.98
2023-03-20T13:59:34.555Z,8.10
2023-03-20T14:02:54.156Z,7.00
2023-03-20T14:05:56.289Z,10.88
2023-03-20T14:08:59.572Z,5.68
2023-03-20T14:15:11.954Z,6.93
2023-03-20T14:18:16.887Z,6.10
2023-03-20T14:21:23.475Z,6.00
2023-03-20T14:24:27.556Z,10.63
2023-03-20T14:27:43.671Z,6.63
2023-03-20T14:30:49.942Z,5.65
2023-03-20T14:33:58.322Z,9.38
2023-03-20T14:37:20.921Z,7.70
2023-03-20T14:40:28.328Z,7.75
2023-03-20T14:43:42.116Z,8.82
2023-03-20T14:46:57.521Z,7.82
2023-03-20T14:50:05.147Z,9.30
2023-03-20T14:53:15.182Z,7.80
2023-03-20T14:56:16.670Z,12.80
2023-03-20T14:59:20.765Z,9.63
2023-03-20T15:02:28.391Z,9.68
2023-03-20T15:05:33.543Z,9.57
2023-03-20T15:08:42.591Z,8.65
2023-03-20T15:11:44.092Z,8.57
2023-03-20T15:14:56.272Z,7.50
2023-03-20T15:18:07.394Z,8.75
2023-03-20T15:21:14.483Z,8.20
2023-03-20T15:24:29.029Z,9.55
2023-03-20T15:27:31.095Z,6.88
2023-03-20T15:30:34.300Z,7.57
2023-03-20T15:36:41.137Z,9.52
2023-03-20T15:39:46.743Z,9.60
2023-03-20T15:42:59.181Z,9.00
2023-03-20T15:46:16.938Z,9.98
2023-03-20T15:49:21.048Z,12.00
2023-03-20T15:52:33.996Z,13.30
2023-03-20T15:55:35.631Z,11.18
2023-03-20T15:58:38.571Z,11.27
2023-03-20T16:01:40.401Z,10.23
2023-03-20T16:04:47.895Z,13.18
2023-03-20T16:07:49.408Z,13.82
2023-03-20T16:10:59.841Z,9.88
2023-03-20T16:14:01.996Z,11.48
2023-03-20T16:17:04.716Z,13.27
2023-03-20T16:20:06.722Z,8.30
2023-03-20T16:23:09.611Z,12.27
2023-03-20T16:26:20.560Z,10.38
2023-03-20T16:29:24.216Z,11.93
2023-03-20T16:32:40.264Z,12.73
2023-03-20T16:35:48.035Z,10.85
2023-03-20T16:39:17.415Z,9.43
2023-03-20T16:42:24.208Z,11.38
2023-03-20T16:45:31.844Z,10.55
2023-03-20T16:48:34.984Z,16.65
2023-03-20T16:51:36.474Z,14.10
2023-03-20T16:54:38.539Z,13.00
2023-03-20T16:57:40.044Z,16.65
2023-03-20T17:01:02.072Z,15.57
2023-03-20T17:04:18.458Z,15.90
2023-03-20T17:07:20.067Z,18.88
2023-03-20T17:10:24.842Z,14.25
2023-03-20T17:13:26.286Z,16.35
2023-03-20T17:16:28.013Z,15.23
2023-03-20T17:19:32.055Z,16.38
2023-03-20T17:22:33.815Z,18.92
2023-03-20T17:25:35.247Z,13.48
2023-03-20T17:28:36.741Z,14.40
2023-03-20T17:31:38.979Z,15.20
2023-03-20T17:34:40.515Z,19.65
2023-03-20T17:37:42.012Z,15.05
2023-03-20T17:40:43.576Z,14.55
2023-03-20T17:43:45.690Z,11.38
2023-03-20T17:46:57.721Z,10.55
2023-03-20T17:50:00.011Z,11.48
2023-03-20T17:53:01.427Z,11.50
2023-03-20T17:56:02.997Z,12.38
2023-03-20T17:59:05.283Z,16.00
2023-03-20T18:02:06.688Z,16.23
2023-03-20T18:05:08.852Z,14.15
2023-03-20T18:08:17.142Z,12.45
2023-03-20T18:11:18.560Z,13.00
2023-03-20T18:14:19.988Z,14.80
2023-03-20T18:17:21.407Z,13.57
2023-03-20T18:20:32.063Z,21.45
2023-03-20T18:23:33.515Z,18.30
2023-03-20T18:26:34.922Z,14.30
2023-03-20T18:29:36.379Z,17.02
2023-03-20T18:32:37.750Z,15.45
2023-03-20T18:35:39.287Z,14.32
2023-03-20T18:38:40.774Z,14.57
2023-03-20T18:41:42.293Z,16.27
2023-03-20T18:44:43.671Z,16.15
2023-03-20T18:47:45.106Z,16.00
2023-03-20T18:50:46.515Z,14.15
2023-03-20T18:53:47.931Z,19.00
2023-03-20T18:56:49.329Z,17.65
2023-03-20T18:59:50.776Z,18.05
2023-03-20T19:02:54.266Z,17.00
2023-03-20T19:05:57.861Z,23.55
2023-03-20T19:09:02.630Z,16.95
2023-03-20T19:12:04.240Z,17.13
2023-03-20T19:15:05.988Z,18.40
2023-03-20T19:18:14.157Z,18.02
2023-03-20T19:21:15.786Z,17.98
2023-03-20T19:24:17.158Z,16.17
2023-03-20T19:27:18.605Z,15.93
2023-03-20T19:30:25.409Z,19.27
2023-03-20T19:33:26.820Z,15.05
2023-03-20T19:36:33.248Z,18.20
2023-03-20T19:39:34.712Z,20.02
2023-03-20T19:42:58.916Z,26.05
2023-03-20T19:45:59.286Z,23.13
2023-03-20T19:52:02.200Z,20.95
2023-03-20T19:55:03.946Z,20.90
2023-03-20T19:58:06.358Z,22.02
2023-03-20T20:01:15.000Z,23.63
2023-03-20T20:04:16.956Z,28.85
2023-03-20T20:08:00.747Z,22.73
2023-03-20T20:10:43.681Z,25.60
2023-03-20T20:14:15.650Z,25.48
2023-03-20T20:17:07.163Z,24.52
2023-03-20T20:20:09.622Z,19.30
2023-03-20T20:23:15.177Z,24.80
2023-03-20T20:26:16.612Z,20.23
2023-03-20T20:29:18.026Z,21.05
2023-03-20T20:32:23.323Z,22.08
2023-03-20T20:35:56.435Z,23.73
2023-03-20T20:38:51.085Z,25.20
2023-03-20T20:41:52.943Z,24.77
2023-03-20T20:44:54.365Z,28.88
2023-03-20T20:47:55.857Z,26.45
2023-03-20T20:51:00.706Z,25.38
2023-03-20T20:54:02.112Z,22.35
2023-03-20T20:57:03.664Z,19.52
2023-03-20T21:00:06.249Z,24.83
2023-03-20T21:03:07.780Z,19.80
2023-03-20T21:06:09.333Z,20.40
2023-03-20T21:09:10.782Z,21.65
2023-03-20T21:12:26.376Z,21.08
2023-03-20T21:15:34.109Z,20.45
2023-03-20T21:18:36.072Z,21.33
2023-03-20T21:21:37.456Z,22.15
2023-03-20T21:24:39.004Z,23.42
2023-03-20T21:27:40.388Z,20.55
2023-03-20T21:30:54.441Z,21.60
2023-03-20T21:34:03.380Z,19.98
2023-03-20T21:38:10.042Z,21.13
2023-03-20T21:40:26.834Z,19.75
2023-03-20T21:43:28.271Z,18.52
2023-03-20T21:50:41.318Z,18.40
2023-03-20T21:57:24.890Z,20.15
2023-03-20T22:00:47.846Z,20.70
2023-03-20T22:03:38.628Z,24.17
2023-03-20T22:10:45.332Z,20.27
2023-03-20T22:17:41.015Z,19.60
2023-03-20T22:24:14.802Z,18.92
2023-03-20T22:31:07.768Z,20.38
2023-03-20T22:34:20.315Z,19.38
2023-03-20T22:37:46.656Z,20.73
2023-03-20T22:46:58.329Z,21.98
2023-03-20T22:49:59.785Z,22.20
2023-03-20T22:53:01.224Z,22.70
2023-03-20T22:56:02.697Z,22.63
2023-03-20T22:59:04.337Z,22.80
2023-03-20T23:02:05.835Z,22.85
2023-03-20T23:05:07.799Z,19.38
2023-03-20T23:08:11.579Z,22.42
2023-03-20T23:11:16.066Z,21.00
2023-03-20T23:14:21.741Z,20.65
2023-03-20T23:17:23.717Z,23.23
2023-03-20T23:20:25.203Z,22.17
2023-03-20T23:23:27.714Z,23.77
2023-03-20T23:26:29.171Z,22.43
2023-03-20T23:29:30.598Z,23.33
2023-03-20T23:32:36.372Z,22.60
2023-03-20T23:35:37.779Z,23.92
2023-03-20T23:38:39.202Z,24.92
2023-03-20T23:42:05.105Z,22.70
2023-03-20T23:45:17.376Z,25.00
2023-03-20T23:48:21.376Z,23.48
2023-03-20T23:51:22.869Z,23.30
2023-03-20T23:54:24.309Z,23.40
2023-03-20T23:57:25.709Z,23.38
